createdAt,value
2022-10-25T00:03:38.934Z,101106.09
2022-10-25T00:08:41.761Z,101105.16
2022-10-25T00:13:44.479Z,101105.50
2022-10-25T00:18:47.334Z,101103.47
2022-10-25T00:23:50.932Z,101108.06
2022-10-25T00:28:55.593Z,101124.50
2022-10-25T00:33:58.236Z,101120.44
2022-10-25T00:39:01.119Z,101108.75
2022-10-25T00:44:45.298Z,101123.28
2022-10-25T00:49:59.356Z,101117.03
2022-10-25T00:55:02.922Z,101123.56
2022-10-25T01:00:06.973Z,101108.53
2022-10-25T01:05:10.412Z,101089.97
2022-10-25T01:10:13.124Z,101102.28
2022-10-25T01:15:15.990Z,101085.78
2022-10-25T01:20:30.726Z,101108.88
2022-10-25T01:25:48.259Z,101114.56
2022-10-25T01:31:15.820Z,101107.66
2022-10-25T01:37:17.083Z,101110.72
2022-10-25T01:42:22.708Z,101114.72
2022-10-25T01:47:32.840Z,101119.66
2022-10-25T01:52:35.632Z,101112.28
2022-10-25T01:58:01.898Z,101112.06
2022-10-25T02:03:19.578Z,101111.22
2022-10-25T02:08:22.373Z,101114.25
2022-10-25T02:13:33.575Z,101119.03
2022-10-25T02:19:02.828Z,101115.69
2022-10-25T02:24:15.368Z,101088.50
2022-10-25T02:29:19.616Z,101113.47
2022-10-25T02:34:22.288Z,101111.25
2022-10-25T02:39:27.909Z,101120.69
2022-10-25T02:44:33.311Z,101111.28
2022-10-25T02:49:36.018Z,101109.78
2022-10-25T02:54:38.776Z,101113.41
2022-10-25T02:59:41.421Z,101108.88
2022-10-25T03:04:44.073Z,101107.25
2022-10-25T03:09:46.898Z,101099.41
2022-10-25T03:14:49.532Z,101102.28
2022-10-25T03:19:52.201Z,101100.78
2022-10-25T03:24:54.912Z,101104.00
2022-10-25T03:29:57.646Z,101105.66
2022-10-25T03:35:00.296Z,101095.13
2022-10-25T03:40:02.975Z,101095.91
2022-10-25T03:45:06.537Z,101077.13
2022-10-25T03:50:09.714Z,101080.03
2022-10-25T03:55:12.463Z,101081.16
2022-10-25T04:00:15.631Z,101069.00
2022-10-25T04:05:18.328Z,101039.59
2022-10-25T04:10:21.057Z,101048.13
2022-10-25T04:15:24.321Z,101036.84
2022-10-25T04:20:26.994Z,101047.22
2022-10-25T04:25:30.086Z,101038.03
2022-10-25T04:30:36.537Z,101043.06
2022-10-25T04:35:41.558Z,101030.56
2022-10-25T04:40:44.488Z,101046.69
2022-10-25T04:45:47.195Z,101038.88
2022-10-25T04:50:49.817Z,101040.09
2022-10-25T04:55:57.370Z,101033.53
2022-10-25T05:01:02.125Z,101028.38
2022-10-25T05:06:15.019Z,101035.16
2022-10-25T05:11:20.180Z,101025.75
2022-10-25T05:16:26.809Z,101032.63
2022-10-25T05:21:31.416Z,101028.88
2022-10-25T05:26:34.264Z,101022.38
2022-10-25T05:31:38.984Z,101014.91
2022-10-25T05:36:41.641Z,101026.59
2022-10-25T05:41:44.418Z,101011.22
2022-10-25T05:46:47.251Z,101000.16
2022-10-25T05:51:49.966Z,101001.75
2022-10-25T05:56:52.582Z,100992.25
2022-10-25T06:01:55.275Z,100990.53
2022-10-25T06:06:59.424Z,100980.88
2022-10-25T06:12:03.882Z,100975.72
2022-10-25T06:17:08.859Z,100948.94
2022-10-25T06:22:11.566Z,100968.66
2022-10-25T06:27:14.198Z,100959.44
2022-10-25T06:32:16.964Z,100929.06
2022-10-25T06:37:20.300Z,100941.56
2022-10-25T06:42:22.922Z,100937.47
2022-10-25T06:47:25.631Z,100941.94
2022-10-25T06:52:29.268Z,100913.91
2022-10-25T06:57:31.969Z,100928.44
2022-10-25T07:02:34.594Z,100923.56
2022-10-25T07:07:37.234Z,100921.69
2022-10-25T07:12:39.879Z,100915.28
2022-10-25T07:17:42.579Z,100924.69
2022-10-25T07:22:45.287Z,100919.81
2022-10-25T07:27:48.231Z,100914.25
2022-10-25T07:32:51.244Z,100909.91
2022-10-25T07:37:54.150Z,100866.03
2022-10-25T07:42:56.841Z,100900.97
2022-10-25T07:47:59.511Z,100888.09
2022-10-25T07:53:02.348Z,100860.78
2022-10-25T07:58:07.054Z,100883.56
2022-10-25T08:03:09.752Z,100880.44
2022-10-25T08:08:13.338Z,100880.34
2022-10-25T08:13:16.187Z,100873.72
2022-10-25T08:18:18.860Z,100863.59
2022-10-25T08:23:21.603Z,100873.22
2022-10-25T08:28:24.287Z,100863.25
2022-10-25T08:33:26.972Z,100871.09
2022-10-25T08:38:30.146Z,100876.06
2022-10-25T08:44:04.681Z,100856.09
2022-10-25T08:49:42.597Z,100870.94
2022-10-25T08:54:47.084Z,100857.50
2022-10-25T08:59:55.887Z,100857.13
2022-10-25T09:04:58.621Z,100865.31
2022-10-25T09:10:24.108Z,100862.91
2022-10-25T09:15:45.627Z,100861.50
2022-10-25T09:20:52.793Z,100862.78
2022-10-25T09:26:17.687Z,100857.91
2022-10-25T09:31:23.920Z,100859.22
2022-10-25T09:36:30.750Z,100856.16
2022-10-25T09:41:39.060Z,100855.00
2022-10-25T09:46:51.001Z,100821.31
2022-10-25T09:52:05.852Z,100863.25
2022-10-25T09:57:08.563Z,100866.78
2022-10-25T10:02:18.053Z,100866.03
2022-10-25T10:07:31.669Z,100873.59
2022-10-25T10:12:41.088Z,100872.34
2022-10-25T10:17:43.898Z,100880.31
2022-10-25T10:22:51.727Z,100883.63
2022-10-25T10:27:57.367Z,100882.47
2022-10-25T10:33:01.543Z,100878.38
2022-10-25T10:38:29.185Z,100857.66
2022-10-25T10:43:34.384Z,100871.59
2022-10-25T10:48:42.019Z,100869.09
2022-10-25T10:53:45.805Z,100867.59
2022-10-25T10:58:53.383Z,100876.09
2022-10-25T11:04:04.116Z,100869.56
2022-10-25T11:09:17.394Z,100870.44
2022-10-25T11:14:21.037Z,100861.53
2022-10-25T11:19:27.239Z,100874.09
2022-10-25T11:24:38.772Z,100866.00
2022-10-25T11:30:10.375Z,100867.09
2022-10-25T11:35:51.396Z,100860.78
2022-10-25T11:41:26.114Z,100859.47
2022-10-25T11:46:31.814Z,100863.53
2022-10-25T11:51:55.363Z,100821.88
2022-10-25T11:57:30.643Z,100822.56
2022-10-25T12:03:13.364Z,100863.00
2022-10-25T12:08:18.792Z,100848.88
2022-10-25T12:13:40.998Z,100856.00
2022-10-25T12:19:09.446Z,100859.50
2022-10-25T12:24:18.706Z,100860.38
2022-10-25T12:29:36.568Z,100866.94
2022-10-25T12:34:58.417Z,100865.63
2022-10-25T12:40:01.390Z,100860.81
2022-10-25T12:45:28.677Z,100865.75
2022-10-25T12:50:37.592Z,100860.50
2022-10-25T12:55:50.282Z,100859.63
2022-10-25T13:01:27.009Z,100863.66
2022-10-25T13:06:33.437Z,100838.75
2022-10-25T13:11:39.949Z,100847.28
2022-10-25T13:16:42.685Z,100842.00
2022-10-25T13:22:35.779Z,100845.38
2022-10-25T13:28:16.839Z,100846.81
2022-10-25T13:33:19.751Z,100850.84
2022-10-25T13:38:28.259Z,100847.44
2022-10-25T13:43:31.042Z,100836.19
2022-10-25T13:48:35.828Z,100831.25
2022-10-25T13:53:51.273Z,100836.50
2022-10-25T13:58:55.303Z,100840.84
2022-10-25T14:04:04.052Z,100836.88
2022-10-25T14:09:24.779Z,100835.34
2022-10-25T14:14:35.741Z,100830.44
2022-10-25T14:20:01.630Z,100816.97
2022-10-25T14:25:20.642Z,100821.66
2022-10-25T14:30:29.747Z,100837.06
2022-10-25T14:35:53.595Z,100835.13
2022-10-25T14:40:57.474Z,100833.75
2022-10-25T14:46:14.943Z,100832.88
2022-10-25T14:51:28.713Z,100834.72
2022-10-25T14:56:37.543Z,100832.00
2022-10-25T15:01:41.119Z,100825.63
2022-10-25T15:06:43.996Z,100828.88
2022-10-25T15:12:04.583Z,100824.22
2022-10-25T15:17:30.852Z,100821.03
2022-10-25T15:22:39.605Z,100826.91
2022-10-25T15:27:44.029Z,100835.81
2022-10-25T15:32:46.846Z,100799.31
2022-10-25T15:37:49.741Z,100831.88
2022-10-25T15:42:52.393Z,100808.47
2022-10-25T15:47:57.814Z,100832.28
2022-10-25T15:53:01.548Z,100832.69
2022-10-25T15:58:08.288Z,100827.31
2022-10-25T16:03:20.687Z,100801.56
2022-10-25T16:08:23.423Z,100833.38
2022-10-25T16:13:33.643Z,100820.84
2022-10-25T16:18:36.367Z,100826.25
2022-10-25T16:23:39.059Z,100816.16
2022-10-25T16:28:41.742Z,100830.44
2022-10-25T16:33:44.458Z,100828.97
2022-10-25T16:38:47.633Z,100826.97
2022-10-25T16:43:50.403Z,100817.84
2022-10-25T16:48:54.227Z,100831.25
2022-10-25T16:53:59.641Z,100832.38
2022-10-25T16:59:02.409Z,100831.03
2022-10-25T17:04:05.713Z,100807.50
2022-10-25T17:09:08.405Z,100816.50
2022-10-25T17:14:11.818Z,100812.22
2022-10-25T17:19:14.526Z,100815.63
2022-10-25T17:24:17.368Z,100810.00
2022-10-25T17:29:20.295Z,100787.75
2022-10-25T17:34:23.371Z,100793.50
2022-10-25T17:39:26.131Z,100798.25
2022-10-25T17:44:28.878Z,100798.47
2022-10-25T17:49:31.607Z,100781.09
2022-10-25T17:54:34.800Z,100783.66
2022-10-25T17:59:37.433Z,100778.22
2022-10-25T18:04:53.731Z,100776.31
2022-10-25T18:10:03.586Z,100780.47
2022-10-25T18:15:06.628Z,100779.59
2022-10-25T18:20:09.766Z,100762.50
2022-10-25T18:25:12.716Z,100766.88
2022-10-25T18:30:16.307Z,100764.22
2022-10-25T18:35:18.965Z,100760.00
2022-10-25T18:40:23.052Z,100765.78
2022-10-25T18:50:39.087Z,100766.78
2022-10-25T18:55:48.395Z,100762.91
2022-10-25T19:00:51.164Z,100747.25
2022-10-25T19:05:54.050Z,100749.50
2022-10-25T19:10:56.757Z,100743.25
2022-10-25T19:15:59.538Z,100743.00
2022-10-25T19:21:04.012Z,100751.00
2022-10-25T19:26:08.530Z,100755.78
2022-10-25T19:31:16.483Z,100749.13
2022-10-25T19:36:20.453Z,100749.53
2022-10-25T19:41:24.753Z,100743.53
2022-10-25T19:46:27.577Z,100742.41
2022-10-25T19:51:30.402Z,100732.41
2022-10-25T19:56:35.608Z,100742.16
2022-10-25T20:01:38.818Z,100738.28
2022-10-25T20:06:41.684Z,100742.53
2022-10-25T20:11:44.430Z,100727.66
2022-10-25T20:16:47.181Z,100727.28
2022-10-25T20:21:49.989Z,100734.16
2022-10-25T20:26:53.641Z,100727.44
2022-10-25T20:31:56.425Z,100679.03
2022-10-25T20:36:59.038Z,100702.91
2022-10-25T20:42:01.936Z,100700.41
2022-10-25T20:47:04.624Z,100711.28
2022-10-25T20:52:07.321Z,100715.16
2022-10-25T20:57:10.433Z,100706.03
2022-10-25T21:02:13.273Z,100700.53
2022-10-25T21:07:16.022Z,100708.53
2022-10-25T21:12:18.659Z,100690.78
2022-10-25T21:17:21.377Z,100706.28
2022-10-25T21:22:24.155Z,100704.28
2022-10-25T21:27:26.927Z,100688.75
2022-10-25T21:32:29.534Z,100692.16
2022-10-25T21:37:32.255Z,100694.16
2022-10-25T21:42:35.240Z,100693.03
2022-10-25T21:47:38.005Z,100684.28
2022-10-25T21:52:40.729Z,100674.28
2022-10-25T21:57:43.394Z,100671.53
2022-10-25T22:02:46.099Z,100677.63
2022-10-25T22:07:49.035Z,100673.13
2022-10-25T22:12:55.322Z,100675.66
2022-10-25T22:17:57.947Z,100675.78
2022-10-25T22:23:00.651Z,100677.28
2022-10-25T22:28:03.358Z,100667.16
2022-10-25T22:33:05.950Z,100653.03
2022-10-25T22:38:08.723Z,100625.03
2022-10-25T22:43:11.358Z,100669.50
2022-10-25T22:48:14.043Z,100622.00
2022-10-25T22:53:17.388Z,100673.03
2022-10-25T22:58:20.607Z,100668.13
2022-10-25T23:03:23.388Z,100659.75
2022-10-25T23:08:27.286Z,100681.53
2022-10-25T23:13:32.155Z,100671.63
2022-10-25T23:18:34.828Z,100689.53
2022-10-25T23:23:39.106Z,100687.25
2022-10-25T23:28:41.885Z,100650.09
2022-10-25T23:33:45.172Z,100680.13
2022-10-25T23:38:48.875Z,100686.38
2022-10-25T23:43:51.627Z,100688.75
2022-10-25T23:48:54.369Z,100682.47
2022-10-25T23:53:57.035Z,100669.09
2022-10-25T23:58:59.797Z,100688.00
